Time;durP1;ratioP1;P1;durP2;ratioP2;P2;SDS_P1;SDS_P2;PMS_P1;PMS_P2;Temp;Humidity;BMP_temperature;BMP_pressure;BME280_temperature;BME280_humidity;BME280_pressure;Samples;Min_cycle;Max_cycle;Signal;HPM_P1;HPM_P2
2023/04/16 00:01:37;;;;;;;24.00;14.75;;;;;;;4.90;57.75;102020.72;5032645;28;20041;-74
2023/04/16 00:04:03;;;;;;;27.67;16.13;;;;;;;5.03;57.59;102024.16;5032416;28;20566;-73
2023/04/16 00:06:28;;;;;;;25.83;15.30;;;;;;;4.97;57.34;102026.75;5016719;28;20032;-73
2023/04/16 00:08:54;;;;;;;24.63;15.18;;;;;;;4.96;57.19;102022.44;5030876;28;20037;-73
2023/04/16 00:11:19;;;;;;;27.10;15.57;;;;;;;4.98;57.28;102023.28;5032067;28;20446;-70
2023/04/16 00:13:45;;;;;;;23.40;14.32;;;;;;;4.87;57.67;102020.66;5021481;28;20041;-72
2023/04/16 00:16:10;;;;;;;26.27;15.27;;;;;;;4.98;57.74;102023.28;5014352;28;20033;-72
2023/04/16 00:18:36;;;;;;;28.83;15.10;;;;;;;5.00;57.26;102018.97;5040496;28;20263;-74
2023/04/16 00:21:01;;;;;;;27.73;15.95;;;;;;;4.89;57.24;102025.88;5027538;28;20029;-73
2023/04/16 00:23:27;;;;;;;25.23;13.68;;;;;;;4.91;57.13;102031.94;5022936;28;20090;-72
2023/04/16 00:25:52;;;;;;;25.23;14.95;;;;;;;4.87;57.04;102035.34;5025445;28;20221;-74
2023/04/16 00:28:18;;;;;;;27.02;14.82;;;;;;;4.84;57.33;102031.00;5024921;28;20324;-74
2023/04/16 00:30:44;;;;;;;26.35;14.02;;;;;;;4.81;57.44;102036.16;5026535;28;20040;-72
2023/04/16 00:33:09;;;;;;;23.20;13.90;;;;;;;4.82;57.64;102032.72;5005569;28;20094;-74
2023/04/16 00:35:35;;;;;;;27.20;15.32;;;;;;;4.89;57.01;102033.66;5010132;28;20138;-73
2023/04/16 00:38:00;;;;;;;27.85;14.00;;;;;;;4.82;57.15;102036.19;5025620;28;20090;-72
2023/04/16 00:40:27;;;;;;;20.00;13.10;;;;;;;4.78;56.76;102037.03;5014563;28;21351;-71
2023/04/16 00:42:53;;;;;;;23.38;13.98;;;;;;;4.68;57.40;102045.66;5024810;28;20053;-70
2023/04/16 00:45:19;;;;;;;21.88;14.25;;;;;;;4.68;57.28;102048.25;5024443;28;20079;-70
2023/04/16 00:47:44;;;;;;;25.33;14.13;;;;;;;4.67;56.92;102050.81;5025889;28;20472;-71
2023/04/16 00:50:11;;;;;;;25.83;13.77;;;;;;;4.62;57.11;102050.78;5023588;28;20060;-72
2023/04/16 00:52:37;;;;;;;25.80;13.20;;;;;;;4.52;57.54;102052.50;5023646;28;20046;-73
2023/04/16 00:55:06;;;;;;;24.23;14.52;;;;;;;4.55;57.42;102047.31;5012145;28;20120;-75
2023/04/16 00:57:31;;;;;;;23.70;14.60;;;;;;;4.67;57.03;102048.22;4999246;28;20038;-74
2023/04/16 00:59:57;;;;;;;22.10;13.73;;;;;;;4.64;57.34;102052.53;5003840;28;20034;-73
2023/04/16 01:02:23;;;;;;;24.42;13.35;;;;;;;4.63;57.24;102057.69;5001714;28;20064;-74
2023/04/16 01:04:50;;;;;;;26.65;14.43;;;;;;;4.69;57.12;102055.13;5006098;28;20037;-73
2023/04/16 01:07:18;;;;;;;30.10;15.55;;;;;;;4.63;56.68;102055.09;4988484;28;20037;-72
2023/04/16 01:09:43;;;;;;;25.88;14.32;;;;;;;4.68;56.57;102060.34;5005686;28;20517;-73
2023/04/16 01:12:09;;;;;;;27.17;15.02;;;;;;;4.48;57.18;102055.94;4990111;28;20080;-72
2023/04/16 01:14:35;;;;;;;26.42;15.45;;;;;;;4.45;56.75;102063.66;5005638;28;20041;-71
2023/04/16 01:17:03;;;;;;;25.88;14.57;;;;;;;4.39;56.95;102061.94;5007818;28;20064;-72
2023/04/16 01:19:35;;;;;;;25.90;15.70;;;;;;;4.32;56.96;102062.75;5005416;28;20072;-72
2023/04/16 01:22:02;;;;;;;28.55;16.20;;;;;;;4.30;57.08;102067.06;5007189;28;20041;-72
2023/04/16 01:24:27;;;;;;;24.92;15.70;;;;;;;4.21;57.45;102067.00;5005162;28;20056;-71
2023/04/16 01:26:53;;;;;;;24.98;15.05;;;;;;;4.27;57.26;102063.56;5004691;28;20331;-72
2023/04/16 01:29:18;;;;;;;26.70;15.48;;;;;;;4.31;56.88;102071.38;5003020;28;20379;-73
2023/04/16 01:31:45;;;;;;;28.45;16.20;;;;;;;4.22;57.38;102066.13;5002356;28;20029;-72
2023/04/16 01:34:21;;;;;;;32.42;15.65;;;;;;;4.31;57.12;102067.91;5002705;28;20582;-71
2023/04/16 01:36:47;;;;;;;26.92;16.98;;;;;;;4.15;57.72;102073.00;4996511;28;20056;-72
2023/04/16 01:39:14;;;;;;;30.88;16.02;;;;;;;4.25;57.92;102071.31;5003087;28;20159;-71
2023/04/16 01:41:40;;;;;;;26.15;16.17;;;;;;;4.40;57.58;102070.53;4997495;28;20333;-72
2023/04/16 01:44:05;;;;;;;29.60;16.90;;;;;;;4.35;57.65;102078.28;5004651;28;20038;-71
2023/04/16 01:46:34;;;;;;;30.83;15.95;;;;;;;4.27;57.76;102077.38;5002066;28;20163;-73
2023/04/16 01:49:01;;;;;;;29.70;16.30;;;;;;;4.41;57.57;102077.47;4990159;28;20541;-74
2023/04/16 01:51:27;;;;;;;25.13;15.60;;;;;;;4.41;57.34;102088.69;4996663;28;20511;-74
2023/04/16 01:53:53;;;;;;;31.00;14.75;;;;;;;4.19;58.30;102082.53;4986944;28;20811;-73
2023/04/16 01:56:19;;;;;;;27.75;15.85;;;;;;;4.26;58.08;102085.16;5005123;28;20034;-75
2023/04/16 01:58:45;;;;;;;31.23;16.15;;;;;;;4.40;58.05;102086.94;4989482;28;20104;-74
2023/04/16 02:01:13;;;;;;;26.67;15.90;;;;;;;4.37;58.06;102089.53;5000981;28;20479;-76
2023/04/16 02:03:39;;;;;;;28.42;16.02;;;;;;;4.43;57.72;102089.56;5000888;28;20041;-75
2023/04/16 02:06:05;;;;;;;29.20;15.88;;;;;;;4.52;57.42;102095.63;5007329;28;20274;-76
2023/04/16 02:08:30;;;;;;;28.30;15.70;;;;;;;4.37;58.23;102097.28;4988126;28;20387;-75
2023/04/16 02:10:57;;;;;;;31.10;15.73;;;;;;;4.43;57.92;102097.34;5004553;28;20334;-75
2023/04/16 02:13:24;;;;;;;24.77;14.10;;;;;;;4.26;58.43;102090.34;5001928;28;20037;-78
2023/04/16 02:15:51;;;;;;;27.98;13.88;;;;;;;4.22;58.41;102087.69;5010015;28;20033;-80
2023/04/16 02:18:37;;;;;;;25.33;14.52;;;;;;;4.37;58.12;102092.13;5007648;28;20021;-80
2023/04/16 02:21:05;;;;;;;22.95;13.68;;;;;;;4.20;58.48;102096.31;4998983;28;20037;-80
2023/04/16 02:23:33;;;;;;;30.88;15.15;;;;;;;4.34;58.64;102102.47;5029660;28;20076;-78
2023/04/16 02:25:59;;;;;;;26.58;14.60;;;;;;;4.42;58.08;102095.59;4998602;28;20095;-79
2023/04/16 02:28:26;;;;;;;25.23;14.50;;;;;;;4.50;57.51;102098.22;5009105;28;20470;-80
2023/04/16 02:30:52;;;;;;;26.35;13.60;;;;;;;4.37;58.35;102105.06;5007377;28;21721;-79
2023/04/16 02:33:19;;;;;;;22.25;13.23;;;;;;;4.44;57.62;102098.19;4989451;28;20128;-79
2023/04/16 02:36:00;;;;;;;18.40;9.50;;;;;;;4.54;57.80;102104.25;4994504;28;20444;-76
2023/04/16 02:38:25;;;;;;;28.88;14.30;;;;;;;4.53;57.53;102103.41;4983986;28;20131;-75
2023/04/16 02:40:51;;;;;;;26.40;14.02;;;;;;;4.64;56.81;102109.50;4987203;28;20029;-75
2023/04/16 02:43:17;;;;;;;24.63;12.98;;;;;;;4.60;57.42;102109.47;5004735;28;20124;-74
2023/04/16 02:45:43;;;;;;;27.98;14.02;;;;;;;4.62;57.68;102110.34;4989786;28;20045;-76
2023/04/16 02:48:09;;;;;;;25.95;14.50;;;;;;;4.74;57.19;102115.56;5017006;28;20636;-75
2023/04/16 02:50:35;;;;;;;27.95;15.25;;;;;;;4.86;57.29;102113.94;5002065;28;20046;-74
2023/04/16 02:53:00;;;;;;;27.35;14.05;;;;;;;4.89;57.00;102112.22;5003430;28;20048;-75
2023/04/16 02:55:27;;;;;;;25.65;14.77;;;;;;;4.83;57.22;102110.47;4993124;28;20052;-74
2023/04/16 02:57:52;;;;;;;29.90;14.32;;;;;;;4.94;57.21;102117.41;4989148;28;20030;-74
2023/04/16 03:00:21;;;;;;;23.02;12.38;;;;;;;4.70;58.03;102113.88;4987124;28;20045;-74
2023/04/16 03:02:46;;;;;;;23.98;13.95;;;;;;;5.11;56.61;102117.50;5003495;28;20029;-75
2023/04/16 03:05:11;;;;;;;25.90;13.70;;;;;;;5.15;57.15;102112.31;4996981;28;20040;-74
2023/04/16 03:07:42;;;;;;;27.58;12.65;;;;;;;5.13;56.93;102118.34;5002086;28;20033;-74
2023/04/16 03:10:08;;;;;;;22.73;13.48;;;;;;;5.18;56.75;102119.22;5003712;28;20045;-75
2023/04/16 03:12:35;;;;;;;23.25;12.98;;;;;;;5.07;56.97;102119.19;5000062;28;22518;-72
2023/04/16 03:15:01;;;;;;;23.83;14.05;;;;;;;4.92;57.56;102121.72;5017633;28;20103;-72
2023/04/16 03:17:26;;;;;;;24.17;13.98;;;;;;;5.10;57.28;102120.91;5018186;28;20086;-72
2023/04/16 03:19:52;;;;;;;23.23;13.32;;;;;;;5.16;57.40;102118.34;5008649;28;20970;-73
2023/04/16 03:22:18;;;;;;;23.40;13.18;;;;;;;5.20;57.66;102113.19;4988434;28;20414;-73
2023/04/16 03:24:43;;;;;;;29.55;15.38;;;;;;;5.19;57.46;102116.66;5003651;28;20033;-75
2023/04/16 03:27:09;;;;;;;26.08;14.18;;;;;;;5.28;57.49;102120.09;5007637;28;20112;-70
2023/04/16 03:29:38;;;;;;;28.45;13.30;;;;;;;5.35;57.08;102127.91;4999904;28;20044;-69
2023/04/16 03:32:05;;;;;;;24.90;13.05;;;;;;;5.47;57.23;102116.69;4995537;28;20036;-71
2023/04/16 03:34:30;;;;;;;25.60;13.85;;;;;;;5.41;56.72;102130.53;4995914;28;20039;-70
2023/04/16 03:36:58;;;;;;;26.00;13.25;;;;;;;5.71;56.50;102120.19;5003087;28;20037;-69
2023/04/16 03:39:24;;;;;;;27.23;14.25;;;;;;;5.56;56.67;102121.88;5001217;28;20564;-71
2023/04/16 03:41:50;;;;;;;26.08;14.80;;;;;;;5.70;56.20;102124.47;5005116;28;20029;-71
2023/04/16 03:44:16;;;;;;;26.45;14.65;;;;;;;5.79;55.78;102129.69;4977520;28;20095;-70
2023/04/16 03:46:42;;;;;;;28.30;14.98;;;;;;;5.73;56.50;102121.03;4999400;28;22114;-73
2023/04/16 03:49:08;;;;;;;26.13;16.60;;;;;;;5.80;55.73;102130.56;4990225;28;20045;-75
2023/04/16 03:51:34;;;;;;;23.50;13.80;;;;;;;5.54;56.62;102133.13;4999612;28;20828;-70
2023/04/16 03:53:59;;;;;;;24.42;13.95;;;;;;;5.66;56.51;102143.53;5007987;28;21488;-67
2023/04/16 03:56:26;;;;;;;31.33;15.75;;;;;;;5.88;56.05;102134.00;5032737;28;20036;-72
2023/04/16 03:58:52;;;;;;;31.60;15.05;;;;;;;5.80;56.25;102138.34;5023687;28;20067;-73
2023/04/16 04:01:18;;;;;;;31.98;15.73;;;;;;;5.63;56.49;102130.53;5024342;28;20132;-73
2023/04/16 04:03:43;;;;;;;28.55;15.65;;;;;;;5.75;56.40;102142.63;5004105;28;20634;-72
2023/04/16 04:06:09;;;;;;;27.05;15.10;;;;;;;5.86;56.23;102143.53;5010035;28;20091;-72
2023/04/16 04:08:34;;;;;;;26.55;15.95;;;;;;;5.37;57.25;102144.34;5018548;28;20037;-72
2023/04/16 04:11:01;;;;;;;26.55;14.90;;;;;;;5.65;57.10;102147.81;5005563;28;20587;-71
2023/04/16 04:13:28;;;;;;;25.30;15.30;;;;;;;5.59;57.26;102141.75;5020064;28;20250;-72
2023/04/16 04:15:54;;;;;;;23.55;15.60;;;;;;;5.85;56.48;102140.06;5023496;28;20094;-72
2023/04/16 04:18:21;;;;;;;27.67;16.63;;;;;;;5.78;56.47;102147.84;5010356;28;20040;-72
2023/04/16 04:20:46;;;;;;;30.77;16.35;;;;;;;5.55;57.47;102147.84;5022066;28;20066;-71
2023/04/16 04:23:14;;;;;;;31.50;15.35;;;;;;;5.87;56.58;102151.28;5028191;28;20182;-70
2023/04/16 04:25:40;;;;;;;29.35;16.85;;;;;;;5.80;56.52;102151.31;5021500;28;20033;-73
2023/04/16 04:28:06;;;;;;;29.15;16.08;;;;;;;5.77;57.13;102151.28;5027773;28;20043;-73
2023/04/16 04:30:31;;;;;;;29.80;14.68;;;;;;;6.02;56.24;102145.25;5005815;28;20041;-72
2023/04/16 04:32:57;;;;;;;28.17;17.50;;;;;;;6.05;55.85;102150.44;5003247;28;20112;-72
2023/04/16 04:35:22;;;;;;;31.55;17.17;;;;;;;6.10;55.90;102145.22;5004269;28;20141;-72
2023/04/16 04:37:48;;;;;;;29.98;17.27;;;;;;;6.24;55.53;102161.66;5019780;28;20037;-76
2023/04/16 04:40:17;;;;;;;26.23;15.77;;;;;;;6.27;55.55;102158.19;5017736;28;20068;-76
2023/04/16 04:42:43;;;;;;;26.70;16.17;;;;;;;6.30;55.63;102155.63;5024793;28;20417;-73
2023/04/16 04:45:10;;;;;;;28.98;16.23;;;;;;;6.31;55.78;102164.28;5014445;28;20037;-72
2023/04/16 04:47:36;;;;;;;35.08;17.48;;;;;;;6.35;55.48;102160.81;5020054;28;20187;-72
2023/04/16 04:50:02;;;;;;;30.35;16.63;;;;;;;6.33;55.35;102157.34;5028437;28;20324;-73
2023/04/16 04:52:29;;;;;;;32.20;15.63;;;;;;;6.33;55.68;102160.84;5026357;28;20032;-71
2023/04/16 04:54:55;;;;;;;29.02;15.80;;;;;;;6.24;55.67;102164.28;5004730;28;20040;-70
2023/04/16 04:57:20;;;;;;;26.17;16.33;;;;;;;6.37;55.67;102162.53;5024241;28;20128;-72
2023/04/16 04:59:46;;;;;;;32.67;17.52;;;;;;;6.39;55.38;102160.78;4997452;28;20076;-71
2023/04/16 05:02:13;;;;;;;33.40;17.33;;;;;;;6.49;55.37;102165.13;4993757;28;20811;-73
2023/04/16 05:04:38;;;;;;;25.40;15.65;;;;;;;6.49;55.07;102175.50;5002259;28;20051;-73
2023/04/16 05:07:04;;;;;;;31.85;16.58;;;;;;;6.45;54.96;102168.59;4990907;28;20034;-68
2023/04/16 05:09:29;;;;;;;28.25;17.20;;;;;;;6.43;55.19;102164.25;5011854;28;20030;-71
2023/04/16 05:11:56;;;;;;;32.63;17.10;;;;;;;6.44;54.94;102172.06;4985613;28;20029;-68
2023/04/16 05:14:22;;;;;;;27.45;14.40;;;;;;;6.29;55.52;102172.09;5002722;28;20171;-69
2023/04/16 05:16:47;;;;;;;27.98;16.45;;;;;;;6.42;55.34;102171.19;5003390;28;20037;-73
2023/04/16 05:19:13;;;;;;;24.75;15.00;;;;;;;6.44;55.29;102174.66;5006700;28;20030;-73
2023/04/16 05:21:41;;;;;;;35.08;17.48;;;;;;;6.43;55.12;102183.31;4986931;28;20025;-73
2023/04/16 05:24:06;;;;;;;26.48;15.45;;;;;;;6.39;55.09;102186.75;5005952;28;20048;-71
2023/04/16 05:26:32;;;;;;;31.58;14.90;;;;;;;6.40;54.92;102191.09;5006494;28;20049;-71
2023/04/16 05:28:57;;;;;;;25.55;15.98;;;;;;;6.46;54.94;102191.09;5001232;28;20045;-74
2023/04/16 05:31:23;;;;;;;30.15;16.48;;;;;;;6.47;54.94;102197.16;5004348;28;20467;-69
2023/04/16 05:33:48;;;;;;;25.13;15.30;;;;;;;6.50;54.50;102198.00;4995538;28;20683;-70
2023/04/16 05:36:14;;;;;;;25.88;14.70;;;;;;;6.57;54.54;102198.00;5006958;28;20537;-71
2023/04/16 05:38:39;;;;;;;24.35;14.48;;;;;;;6.61;54.44;102204.91;5002047;28;20049;-74
2023/04/16 05:41:05;;;;;;;25.45;14.40;;;;;;;6.65;54.55;102202.31;5007700;28;20469;-72
2023/04/16 05:43:31;;;;;;;21.50;13.52;;;;;;;6.62;54.60;102207.53;5003316;28;20087;-70
2023/04/16 05:45:56;;;;;;;22.42;13.40;;;;;;;6.77;54.19;102203.16;5003956;28;20037;-71
2023/04/16 05:48:22;;;;;;;22.35;15.40;;;;;;;6.77;54.00;102211.81;5002869;28;20029;-72
2023/04/16 05:50:48;;;;;;;26.73;13.90;;;;;;;6.88;54.40;102211.78;5000234;28;20085;-71
2023/04/16 05:53:13;;;;;;;24.30;13.32;;;;;;;6.94;54.00;102209.16;5004815;28;20037;-73
2023/04/16 05:55:39;;;;;;;26.17;13.45;;;;;;;7.04;54.03;102204.78;4999766;28;20802;-73
2023/04/16 05:58:04;;;;;;;27.08;14.98;;;;;;;7.10;53.48;102215.16;5007310;28;20029;-72
2023/04/16 06:00:31;;;;;;;23.85;14.77;;;;;;;6.97;53.91;102208.28;5002608;28;20326;-69
2023/04/16 06:02:57;;;;;;;22.13;13.65;;;;;;;7.12;53.62;102213.44;4996832;28;20285;-69
2023/04/16 06:05:24;;;;;;;22.95;14.70;;;;;;;7.35;53.65;102215.06;5004086;28;20568;-73
2023/04/16 06:07:49;;;;;;;23.88;13.88;;;;;;;7.48;53.27;102212.38;5004607;28;20168;-71
2023/04/16 06:10:15;;;;;;;24.20;12.52;;;;;;;7.54;52.31;102214.09;5001809;28;20720;-76
2023/04/16 06:12:40;;;;;;;24.25;13.60;;;;;;;7.57;52.48;102208.03;5005756;28;20059;-71
2023/04/16 06:15:06;;;;;;;30.17;14.38;;;;;;;7.76;51.88;102212.25;5013941;28;20041;-71
2023/04/16 06:17:32;;;;;;;23.52;13.23;;;;;;;7.98;51.72;102219.88;5011974;28;20057;-72
2023/04/16 06:19:57;;;;;;;22.13;12.20;;;;;;;7.73;52.10;102210.53;5001181;28;21585;-71
2023/04/16 06:22:23;;;;;;;17.52;11.40;;;;;;;7.88;51.57;102217.34;5005173;28;20136;-71
2023/04/16 06:24:49;;;;;;;22.45;12.40;;;;;;;8.18;50.98;102219.72;5004716;28;20041;-73
2023/04/16 06:27:15;;;;;;;17.88;12.43;;;;;;;8.19;50.50;102221.47;5001941;28;20552;-72
2023/04/16 06:29:40;;;;;;;21.15;12.07;;;;;;;8.14;50.72;102218.91;5004070;28;20045;-72
2023/04/16 06:32:06;;;;;;;16.73;11.45;;;;;;;8.18;51.05;102224.94;5004961;28;20030;-70
2023/04/16 06:34:32;;;;;;;18.23;10.90;;;;;;;8.17;51.24;102228.44;5002225;28;20039;-70
2023/04/16 06:36:58;;;;;;;20.92;12.20;;;;;;;8.24;51.11;102235.31;5005305;28;20339;-72
2023/04/16 06:39:24;;;;;;;17.98;11.90;;;;;;;8.29;51.07;102233.53;5001998;28;20124;-72
2023/04/16 06:41:50;;;;;;;20.13;12.02;;;;;;;8.26;50.73;102230.97;5000648;28;20080;-73
2023/04/16 06:44:16;;;;;;;23.13;14.68;;;;;;;8.32;50.87;102233.53;5008760;28;20116;-71
2023/04/16 06:46:42;;;;;;;22.92;12.75;;;;;;;8.50;50.44;102238.56;5005144;28;20069;-73
2023/04/16 06:49:08;;;;;;;17.20;11.07;;;;;;;8.52;50.36;102238.53;5023294;28;20052;-71
2023/04/16 06:51:34;;;;;;;26.92;13.27;;;;;;;8.39;50.52;102243.00;5023340;28;20033;-71
2023/04/16 06:53:59;;;;;;;17.13;11.95;;;;;;;8.35;51.01;102243.91;5015095;28;20042;-71
2023/04/16 06:56:25;;;;;;;16.90;11.20;;;;;;;8.60;50.20;102246.28;4997498;28;20029;-72
2023/04/16 06:58:51;;;;;;;18.98;11.18;;;;;;;8.55;50.71;102244.56;5003226;28;20486;-72
2023/04/16 07:01:17;;;;;;;20.45;12.05;;;;;;;8.52;50.45;102244.63;5005230;28;20036;-71
2023/04/16 07:03:43;;;;;;;21.77;12.55;;;;;;;8.60;50.25;102247.13;5004698;28;20122;-71
2023/04/16 07:06:09;;;;;;;18.02;11.02;;;;;;;8.65;49.73;102250.59;4996381;28;20535;-72
2023/04/16 07:08:35;;;;;;;22.13;11.77;;;;;;;8.60;50.57;102254.09;5001113;28;20037;-71
2023/04/16 07:11:01;;;;;;;20.63;13.00;;;;;;;8.48;50.79;102248.13;5001694;28;20470;-71
2023/04/16 07:13:26;;;;;;;21.38;12.75;;;;;;;8.42;51.08;102248.16;5001472;28;20495;-71
2023/04/16 07:15:52;;;;;;;23.60;11.85;;;;;;;8.71;50.54;102252.28;5001469;28;20034;-72
2023/04/16 07:18:17;;;;;;;22.33;11.60;;;;;;;8.76;50.24;102260.91;4999678;28;20041;-73
2023/04/16 07:20:43;;;;;;;18.08;10.43;;;;;;;8.85;50.37;102259.94;5002901;28;20493;-72
2023/04/16 07:23:09;;;;;;;20.25;11.45;;;;;;;8.82;50.24;102262.59;5002708;28;20040;-70
2023/04/16 07:25:34;;;;;;;27.25;12.52;;;;;;;8.88;49.05;102266.00;5000252;28;20041;-71
2023/04/16 07:28:02;;;;;;;24.73;11.52;;;;;;;8.83;49.10;102265.19;4980360;28;20584;-72
2023/04/16 07:30:32;;;;;;;17.83;11.18;;;;;;;8.83;50.01;102265.19;4983616;28;20072;-72
2023/04/16 07:33:00;;;;;;;20.85;12.65;;;;;;;8.95;49.84;102267.66;4999471;28;20402;-72
2023/04/16 07:35:26;;;;;;;18.67;12.88;;;;;;;8.80;50.60;102273.03;5001034;28;20572;-72
2023/04/16 07:37:52;;;;;;;22.02;14.23;;;;;;;9.02;49.75;102273.69;5000755;28;20056;-72
2023/04/16 07:40:17;;;;;;;23.90;13.00;;;;;;;8.99;49.86;102268.50;4997719;28;20402;-72
2023/04/16 07:42:42;;;;;;;19.75;12.27;;;;;;;9.14;49.93;102275.28;5005145;28;20034;-73
2023/04/16 07:45:08;;;;;;;27.48;14.30;;;;;;;9.08;49.99;102272.75;5000356;28;20148;-73
2023/04/16 07:47:34;;;;;;;17.17;11.63;;;;;;;9.13;49.55;102273.56;5003308;28;21010;-73
2023/04/16 07:50:00;;;;;;;22.30;12.25;;;;;;;9.23;49.46;102271.69;5000239;28;20044;-71
2023/04/16 07:52:26;;;;;;;20.65;12.02;;;;;;;9.42;48.56;102274.94;4993213;28;20068;-72
2023/04/16 07:54:55;;;;;;;19.08;11.52;;;;;;;9.58;48.55;102281.69;4998176;28;20041;-72
2023/04/16 07:57:21;;;;;;;22.52;13.32;;;;;;;9.69;49.01;102282.41;5000868;28;20571;-73
2023/04/16 07:59:48;;;;;;;17.73;11.15;;;;;;;9.44;48.98;102278.41;4981320;28;20030;-72
2023/04/16 08:02:16;;;;;;;17.73;10.50;;;;;;;9.63;48.98;102282.47;5004045;28;20037;-72
2023/04/16 08:04:43;;;;;;;20.98;11.65;;;;;;;9.51;48.91;102288.72;5001797;28;20049;-72
2023/04/16 08:07:09;;;;;;;17.98;10.98;;;;;;;9.61;48.62;102286.88;4987075;28;20041;-72
2023/04/16 08:09:35;;;;;;;19.33;11.90;;;;;;;9.42;48.64;102288.00;5010675;28;20371;-72
2023/04/16 08:12:01;;;;;;;18.00;12.45;;;;;;;9.52;47.99;102295.69;5010100;28;20041;-73
2023/04/16 08:14:27;;;;;;;21.38;12.77;;;;;;;9.51;48.83;102298.31;5023009;28;20568;-73
2023/04/16 08:16:53;;;;;;;19.67;11.27;;;;;;;9.52;48.37;102300.91;5023773;28;20045;-73
2023/04/16 08:19:19;;;;;;;17.27;11.60;;;;;;;9.48;48.21;102303.59;5024615;28;20036;-76
2023/04/16 08:21:45;;;;;;;19.90;12.43;;;;;;;9.65;48.13;102301.59;5025435;28;20043;-75
2023/04/16 08:24:11;;;;;;;19.67;12.43;;;;;;;9.70;47.97;102309.38;5007506;28;20042;-74
2023/04/16 08:26:37;;;;;;;20.65;11.93;;;;;;;9.51;48.62;102308.75;5023278;28;20024;-73
2023/04/16 08:29:03;;;;;;;20.55;12.73;;;;;;;9.59;48.00;102306.94;5024994;28;20076;-73
2023/04/16 08:31:28;;;;;;;23.15;12.88;;;;;;;9.83;47.91;102299.66;5008705;28;20039;-72
2023/04/16 08:33:53;;;;;;;23.85;13.02;;;;;;;9.80;47.62;102311.00;5021943;28;20045;-72
2023/04/16 08:36:19;;;;;;;20.92;12.98;;;;;;;9.71;47.94;102306.75;5026893;28;20483;-71
2023/04/16 08:38:45;;;;;;;17.23;11.15;;;;;;;9.94;47.26;102321.25;5027309;28;20398;-71
2023/04/16 08:41:12;;;;;;;18.10;11.85;;;;;;;9.99;47.05;102315.09;5027384;28;20033;-72
2023/04/16 08:43:43;;;;;;;18.52;11.43;;;;;;;9.94;47.01;102326.47;5023671;28;20032;-73
2023/04/16 08:46:10;;;;;;;24.08;13.57;;;;;;;9.91;46.89;102321.31;5010951;28;20040;-74
2023/04/16 08:48:36;;;;;;;22.25;12.55;;;;;;;10.10;46.62;102320.16;5024282;28;20047;-72
2023/04/16 08:51:01;;;;;;;19.20;12.07;;;;;;;9.97;46.73;102321.25;5027522;28;20041;-72
2023/04/16 08:53:47;;;;;;;20.15;11.30;;;;;;;9.96;46.74;102328.19;5024171;28;20043;-73
2023/04/16 08:56:14;;;;;;;23.20;12.27;;;;;;;10.00;46.31;102329.03;5027057;28;20171;-72
2023/04/16 08:58:40;;;;;;;19.77;12.88;;;;;;;9.85;46.55;102331.84;5027174;28;20180;-71
2023/04/16 09:01:09;;;;;;;17.90;11.00;;;;;;;9.93;46.67;102325.63;5038309;28;20412;-72
2023/04/16 09:03:35;;;;;;;17.30;11.65;;;;;;;9.95;46.55;102330.84;5025907;28;20599;-73
2023/04/16 09:06:03;;;;;;;22.27;12.60;;;;;;;10.09;46.73;102321.03;5019315;28;20056;-73
2023/04/16 09:08:28;;;;;;;21.00;11.45;;;;;;;10.21;45.86;102327.81;5025433;28;20033;-72
2023/04/16 09:10:58;;;;;;;16.98;11.38;;;;;;;10.31;46.10;102333.78;5026129;28;20271;-72
2023/04/16 09:13:24;;;;;;;21.23;11.75;;;;;;;10.19;46.07;102333.09;5026557;28;20064;-72
2023/04/16 09:15:53;;;;;;;18.25;11.40;;;;;;;10.00;45.92;102331.63;5024233;28;20222;-73
2023/04/16 09:18:22;;;;;;;17.42;11.57;;;;;;;10.21;45.97;102331.31;5023144;28;22804;-71
2023/04/16 09:20:49;;;;;;;22.80;11.77;;;;;;;10.29;45.88;102325.09;5025331;28;20029;-71
2023/04/16 09:23:15;;;;;;;16.10;11.38;;;;;;;10.14;46.04;102331.41;5025966;28;20576;-70
2023/04/16 09:25:41;;;;;;;19.25;11.40;;;;;;;10.39;46.04;102329.28;5026438;28;20064;-71
2023/04/16 09:28:09;;;;;;;21.60;12.68;;;;;;;10.66;45.38;102332.34;5028341;28;20090;-71
2023/04/16 09:30:36;;;;;;;18.88;11.85;;;;;;;10.97;44.75;102330.94;5023331;28;20638;-71
2023/04/16 09:33:21;;;;;;;17.65;11.65;;;;;;;11.24;44.10;102326.06;5023771;28;20041;-70
2023/04/16 09:35:48;;;;;;;19.17;11.23;;;;;;;11.14;43.87;102333.22;5024148;28;20049;-71
2023/04/16 09:38:15;;;;;;;18.90;11.73;;;;;;;11.37;42.89;102330.16;5024950;28;20458;-71
2023/04/16 09:40:41;;;;;;;23.70;10.77;;;;;;;11.35;42.92;102325.84;5023805;28;20033;-72
2023/04/16 09:43:26;;;;;;;19.05;12.05;;;;;;;11.62;42.92;102332.25;5027101;28;20059;-71
2023/04/16 09:45:54;;;;;;;20.98;11.90;;;;;;;10.96;44.18;102333.59;5026923;28;20033;-70
2023/04/16 09:48:30;;;;;;;16.40;10.93;;;;;;;11.84;42.92;102330.97;5014976;28;20037;-70
2023/04/16 09:50:59;;;;;;;25.67;13.02;;;;;;;11.77;42.75;102336.31;5026628;28;20045;-69
2023/04/16 09:53:27;;;;;;;23.00;12.85;;;;;;;11.91;42.80;102336.03;5032163;28;20037;-72
2023/04/16 09:56:01;;;;;;;16.77;11.82;;;;;;;12.08;42.87;102339.16;5025630;28;20028;-71
2023/04/16 09:58:27;;;;;;;21.65;13.02;;;;;;;11.57;44.34;102337.59;5026086;28;20035;-70
2023/04/16 10:01:10;;;;;;;22.55;13.55;;;;;;;11.76;43.73;102343.31;5036902;28;20107;-70
2023/04/16 10:03:38;;;;;;;24.80;14.60;;;;;;;12.04;43.48;102340.13;5024896;28;20033;-70
2023/04/16 10:06:18;;;;;;;21.85;13.13;;;;;;;12.17;42.96;102333.69;5025089;28;20486;-72
2023/04/16 10:08:46;;;;;;;20.88;13.32;;;;;;;12.21;43.34;102335.34;5024063;28;20067;-71
2023/04/16 10:11:13;;;;;;;19.90;11.90;;;;;;;12.29;43.48;102338.66;5026527;28;20533;-70
2023/04/16 10:13:38;;;;;;;17.27;13.18;;;;;;;11.93;43.31;102339.50;5021874;28;20670;-71
2023/04/16 10:16:05;;;;;;;22.85;12.98;;;;;;;12.33;42.82;102344.66;5025578;28;20060;-71
2023/04/16 10:18:32;;;;;;;21.92;12.95;;;;;;;12.30;42.26;102344.75;5025515;28;20032;-70
2023/04/16 10:20:58;;;;;;;23.88;12.32;;;;;;;12.79;42.36;102347.94;5025868;28;20083;-70
2023/04/16 10:23:24;;;;;;;24.17;13.10;;;;;;;12.31;41.96;102343.00;5023743;28;20140;-69
2023/04/16 10:25:51;;;;;;;17.48;10.68;;;;;;;12.49;42.13;102347.78;5040230;28;20155;-70
2023/04/16 10:28:17;;;;;;;21.58;12.38;;;;;;;12.66;41.95;102348.22;5021886;28;20032;-70
2023/04/16 10:30:51;;;;;;;22.50;12.25;;;;;;;13.07;41.29;102343.69;5023347;28;20148;-70
2023/04/16 10:33:19;;;;;;;18.40;11.75;;;;;;;12.96;41.81;102340.50;5020661;28;20029;-70
2023/04/16 10:35:45;;;;;;;21.20;11.65;;;;;;;13.04;41.57;102341.13;5025810;28;20410;-72
2023/04/16 10:38:21;;;;;;;27.73;12.15;;;;;;;13.20;40.75;102341.56;5023903;28;20041;-71
2023/04/16 10:40:47;;;;;;;19.00;11.50;;;;;;;12.83;41.53;102347.84;4995544;28;20288;-71
2023/04/16 10:43:17;;;;;;;18.77;11.30;;;;;;;12.81;41.66;102351.41;5004576;28;20789;-70
2023/04/16 10:45:42;;;;;;;15.88;12.38;;;;;;;12.85;41.78;102342.56;5004379;28;20132;-71
2023/04/16 10:48:08;;;;;;;21.95;12.32;;;;;;;13.06;41.46;102344.59;5004825;28;20968;-70
2023/04/16 10:50:36;;;;;;;18.13;12.50;;;;;;;13.13;41.69;102352.31;4997509;28;20096;-71
2023/04/16 10:53:19;;;;;;;19.17;11.95;;;;;;;13.38;41.03;102348.06;4997032;28;20690;-70
2023/04/16 10:56:10;;;;;;;24.63;12.55;;;;;;;13.64;41.08;102347.34;5003364;28;20120;-71
2023/04/16 10:58:36;;;;;;;20.00;11.75;;;;;;;13.67;40.65;102355.16;5003012;28;20278;-70
2023/04/16 11:01:12;;;;;;;21.38;13.00;;;;;;;13.71;40.82;102348.88;5008622;28;20071;-70
2023/04/16 11:03:59;;;;;;;27.80;13.63;;;;;;;14.13;40.51;102345.84;5002632;28;20486;-70
2023/04/16 11:06:26;;;;;;;21.52;11.65;;;;;;;14.08;39.38;102344.28;4995124;28;20059;-71
2023/04/16 11:08:52;;;;;;;20.92;13.65;;;;;;;13.96;41.40;102340.25;5006468;28;20052;-70
2023/04/16 11:11:18;;;;;;;19.38;12.75;;;;;;;14.11;39.54;102342.41;5003054;28;20041;-72
2023/04/16 11:13:45;;;;;;;20.08;13.00;;;;;;;14.29;39.81;102343.59;5005738;28;20045;-71
2023/04/16 11:16:14;;;;;;;22.27;12.45;;;;;;;14.70;39.12;102335.25;5004129;28;20406;-71